createdAt,value
2023-03-16T00:00:47.362Z,32.40
2023-03-16T00:03:19.372Z,30.42
2023-03-16T00:05:55.019Z,30.67
2023-03-16T00:08:21.648Z,29.45
2023-03-16T00:10:48.257Z,29.42
2023-03-16T00:13:18.405Z,30.05
2023-03-16T00:15:51.780Z,27.98
2023-03-16T00:20:44.767Z,26.50
2023-03-16T00:23:11.911Z,28.30
2023-03-16T00:25:38.366Z,30.15
2023-03-16T00:28:04.818Z,30.40
2023-03-16T00:30:32.698Z,29.90
2023-03-16T00:32:59.304Z,29.58
2023-03-16T00:35:25.896Z,34.60
2023-03-16T00:37:52.364Z,34.00
2023-03-16T00:40:18.907Z,29.65
2023-03-16T00:42:45.343Z,28.20
2023-03-16T00:45:11.965Z,29.95
2023-03-16T00:47:38.544Z,30.63
2023-03-16T00:50:05.124Z,29.17
2023-03-16T00:52:31.920Z,27.67
2023-03-16T00:54:58.467Z,28.77
2023-03-16T00:57:27.824Z,28.10
2023-03-16T00:59:55.587Z,27.63
2023-03-16T01:02:24.670Z,31.90
2023-03-16T01:04:52.017Z,30.77
2023-03-16T01:07:18.840Z,29.80
2023-03-16T01:09:45.276Z,29.50
2023-03-16T01:12:13.234Z,29.20
2023-03-16T01:14:40.057Z,27.73
2023-03-16T01:17:08.584Z,30.60
2023-03-16T01:19:36.641Z,30.83
2023-03-16T01:22:04.823Z,30.70
2023-03-16T01:24:32.100Z,30.70
2023-03-16T01:26:59.741Z,31.02
2023-03-16T01:29:26.338Z,30.30
2023-03-16T01:31:55.867Z,34.92
2023-03-16T01:34:22.390Z,30.80
2023-03-16T01:36:49.981Z,30.23
2023-03-16T01:39:24.466Z,31.27
2023-03-16T01:41:50.947Z,31.95
2023-03-16T01:44:23.074Z,31.83
2023-03-16T01:46:49.524Z,30.25
2023-03-16T01:49:25.279Z,30.40
2023-03-16T01:51:56.264Z,32.15
2023-03-16T01:54:36.116Z,33.95
2023-03-16T01:57:05.978Z,32.30
2023-03-16T01:59:43.085Z,29.83
2023-03-16T02:02:11.151Z,30.25
2023-03-16T02:04:50.542Z,30.92
2023-03-16T02:07:20.640Z,31.08
2023-03-16T02:09:49.165Z,34.50
2023-03-16T02:12:19.385Z,29.83
2023-03-16T02:14:53.477Z,29.88
2023-03-16T02:17:27.440Z,30.08
2023-03-16T02:20:00.803Z,30.13
2023-03-16T02:22:27.639Z,32.25
2023-03-16T02:24:54.362Z,32.38
2023-03-16T02:27:27.055Z,29.15
2023-03-16T02:30:06.292Z,33.80
2023-03-16T02:32:39.782Z,31.70
2023-03-16T02:35:07.640Z,30.63
2023-03-16T02:37:34.607Z,28.80
2023-03-16T02:40:13.534Z,28.98
2023-03-16T02:42:40.088Z,28.88
2023-03-16T02:45:07.060Z,25.98
2023-03-16T02:47:42.634Z,28.65
2023-03-16T02:50:10.632Z,31.75
2023-03-16T02:52:37.850Z,28.13
2023-03-16T02:55:05.905Z,28.25
2023-03-16T02:57:32.785Z,27.63
2023-03-16T03:00:19.178Z,26.85
2023-03-16T03:02:48.983Z,25.80
2023-03-16T03:05:15.569Z,26.55
2023-03-16T03:07:42.192Z,25.98
2023-03-16T03:10:08.998Z,28.70
2023-03-16T03:12:35.438Z,28.75
2023-03-16T03:15:05.810Z,28.13
2023-03-16T03:17:39.373Z,28.15
2023-03-16T03:20:13.997Z,27.20
2023-03-16T03:22:40.578Z,24.42
2023-03-16T03:25:07.334Z,27.63
2023-03-16T03:27:33.796Z,28.13
2023-03-16T03:30:06.376Z,25.70
2023-03-16T03:32:32.812Z,24.60
2023-03-16T03:34:59.445Z,25.77
2023-03-16T03:37:26.019Z,25.00
2023-03-16T03:39:53.451Z,25.42
2023-03-16T03:42:23.828Z,26.00
2023-03-16T03:44:53.910Z,24.52
2023-03-16T03:47:20.721Z,23.75
2023-03-16T03:49:47.278Z,27.30
2023-03-16T03:52:14.014Z,27.45
2023-03-16T03:54:40.916Z,22.10
2023-03-16T03:57:12.812Z,25.00
2023-03-16T03:59:43.663Z,24.40
2023-03-16T04:02:10.782Z,25.40
2023-03-16T04:04:42.752Z,23.85
2023-03-16T04:07:11.414Z,22.52
2023-03-16T04:09:38.729Z,25.20
2023-03-16T04:12:07.095Z,24.50
2023-03-16T04:14:34.021Z,22.98
2023-03-16T04:17:04.809Z,24.95
2023-03-16T04:19:33.598Z,24.48
2023-03-16T04:22:00.443Z,23.13
2023-03-16T04:24:26.982Z,24.90
2023-03-16T04:26:54.312Z,25.80
2023-03-16T04:29:21.100Z,25.10
2023-03-16T04:31:47.556Z,26.90
2023-03-16T04:34:14.193Z,25.15
2023-03-16T04:36:41.861Z,23.40
2023-03-16T04:39:10.545Z,25.92
2023-03-16T04:41:37.109Z,26.80
2023-03-16T04:44:11.841Z,24.70
2023-03-16T04:46:38.470Z,24.23
2023-03-16T04:49:09.610Z,23.60
2023-03-16T04:51:37.747Z,24.15
2023-03-16T04:54:07.715Z,27.92
2023-03-16T04:56:36.309Z,26.52
2023-03-16T04:59:07.674Z,28.30
2023-03-16T05:01:44.699Z,24.90
2023-03-16T05:04:18.887Z,25.05
2023-03-16T05:06:46.244Z,24.70
2023-03-16T05:09:14.299Z,28.15
2023-03-16T05:11:40.744Z,28.38
2023-03-16T05:14:09.896Z,28.13
2023-03-16T05:16:49.719Z,28.73
2023-03-16T05:19:16.201Z,28.15
2023-03-16T05:21:43.392Z,29.50
2023-03-16T05:24:09.867Z,27.67
2023-03-16T05:26:36.328Z,30.75
2023-03-16T05:29:06.535Z,25.10
2023-03-16T05:31:33.203Z,26.98
2023-03-16T05:34:02.434Z,30.15
2023-03-16T05:36:28.889Z,35.95
2023-03-16T05:39:00.728Z,34.72
2023-03-16T05:41:36.740Z,34.63
2023-03-16T05:44:24.666Z,30.40
2023-03-16T05:47:14.084Z,25.30
2023-03-16T05:49:45.332Z,28.35
2023-03-16T05:52:21.490Z,20.58
2023-03-16T05:54:48.070Z,24.20
2023-03-16T05:57:14.532Z,22.55
2023-03-16T05:59:43.876Z,19.83
2023-03-16T06:02:11.570Z,20.90
2023-03-16T06:04:38.287Z,20.48
2023-03-16T06:07:04.865Z,18.25
2023-03-16T06:09:31.709Z,20.33
2023-03-16T06:11:58.262Z,22.35
2023-03-16T06:14:25.212Z,18.83
2023-03-16T06:16:54.137Z,21.25
2023-03-16T06:19:21.735Z,18.05
2023-03-16T06:21:52.916Z,19.23
2023-03-16T06:24:19.560Z,20.88
2023-03-16T06:26:45.964Z,17.85
2023-03-16T06:29:13.229Z,19.20
2023-03-16T06:31:41.012Z,19.30
2023-03-16T06:34:07.969Z,17.02
2023-03-16T06:36:34.558Z,16.40
2023-03-16T06:39:04.403Z,19.17
2023-03-16T06:41:42.829Z,17.23
2023-03-16T06:44:11.641Z,16.73
2023-03-16T06:49:11.141Z,19.17
2023-03-16T06:51:38.298Z,18.92
2023-03-16T06:54:04.897Z,17.98
2023-03-16T06:56:33.615Z,16.75
2023-03-16T06:59:00.023Z,18.98
2023-03-16T07:01:26.781Z,16.00
2023-03-16T07:03:53.243Z,15.85
2023-03-16T07:06:24.595Z,18.25
2023-03-16T07:08:51.550Z,14.57
2023-03-16T07:11:19.942Z,14.98
2023-03-16T07:13:46.473Z,16.08
2023-03-16T07:16:15.284Z,13.20
2023-03-16T07:18:44.363Z,12.65
2023-03-16T07:21:14.275Z,14.43
2023-03-16T07:23:40.967Z,12.20
2023-03-16T07:26:08.855Z,12.32
2023-03-16T07:28:39.860Z,10.93
2023-03-16T07:31:07.302Z,10.85
2023-03-16T07:33:38.424Z,12.98
2023-03-16T07:36:09.310Z,10.75
2023-03-16T07:38:39.979Z,11.23
2023-03-16T07:41:06.815Z,13.90
2023-03-16T07:43:34.876Z,10.73
2023-03-16T07:46:01.546Z,10.10
2023-03-16T07:48:28.999Z,10.95
2023-03-16T07:50:59.509Z,11.77
2023-03-16T07:53:26.449Z,9.40
2023-03-16T07:56:07.720Z,12.13
2023-03-16T07:58:37.009Z,10.70
2023-03-16T08:01:03.991Z,10.18
2023-03-16T08:03:32.043Z,9.25
2023-03-16T08:05:58.867Z,10.05
2023-03-16T08:08:26.548Z,11.70
2023-03-16T08:10:54.624Z,10.68
2023-03-16T08:13:27.393Z,9.48
2023-03-16T08:15:58.685Z,11.93
2023-03-16T08:18:36.916Z,8.63
2023-03-16T08:21:03.556Z,41.22
2023-03-16T08:23:33.558Z,11.48
2023-03-16T08:26:01.146Z,10.80
2023-03-16T08:28:28.077Z,10.07
2023-03-16T08:30:56.211Z,8.77
2023-03-16T08:33:49.679Z,9.90
2023-03-16T08:36:21.008Z,9.15
2023-03-16T08:39:06.114Z,9.85
2023-03-16T08:41:37.875Z,10.10
2023-03-16T08:44:08.707Z,10.77
2023-03-16T08:46:35.657Z,7.47
2023-03-16T08:49:02.876Z,8.18
2023-03-16T08:51:29.630Z,10.80
2023-03-16T08:53:56.102Z,10.32
2023-03-16T08:56:22.516Z,8.68
2023-03-16T08:58:50.614Z,9.13
2023-03-16T09:01:20.354Z,7.72
2023-03-16T09:03:46.937Z,8.63
2023-03-16T09:06:14.552Z,8.60
2023-03-16T09:08:41.194Z,7.03
2023-03-16T09:11:15.907Z,9.60
2023-03-16T09:13:42.906Z,11.77
2023-03-16T09:16:10.188Z,6.90
2023-03-16T09:18:36.730Z,6.93
2023-03-16T09:21:05.136Z,9.23
2023-03-16T09:23:32.064Z,8.20
2023-03-16T09:26:02.007Z,8.18
2023-03-16T09:28:29.397Z,7.43
2023-03-16T09:30:56.762Z,6.57
2023-03-16T09:33:24.779Z,7.55
2023-03-16T09:35:52.098Z,9.10
2023-03-16T09:38:18.901Z,9.65
2023-03-16T09:40:47.206Z,7.25
2023-03-16T09:43:32.260Z,8.25
2023-03-16T09:45:59.494Z,9.43
2023-03-16T09:48:29.275Z,9.90
2023-03-16T09:50:56.683Z,8.32
2023-03-16T09:53:41.948Z,7.55
2023-03-16T09:56:14.559Z,7.75
2023-03-16T09:58:41.138Z,6.37
2023-03-16T10:01:11.267Z,7.75
2023-03-16T10:03:41.181Z,7.82
2023-03-16T10:06:12.376Z,9.05
2023-03-16T10:08:40.798Z,6.90
2023-03-16T10:11:10.000Z,8.45
2023-03-16T10:13:53.078Z,11.07
2023-03-16T10:16:30.816Z,7.63
2023-03-16T10:19:00.696Z,9.85
2023-03-16T10:21:27.930Z,7.88
2023-03-16T10:23:58.617Z,7.57
2023-03-16T10:26:28.680Z,8.45
2023-03-16T10:28:55.086Z,9.57
2023-03-16T10:31:23.033Z,8.27
2023-03-16T10:33:52.348Z,9.25
2023-03-16T10:36:25.502Z,8.43
2023-03-16T10:38:59.823Z,10.85
2023-03-16T10:41:29.254Z,6.95
2023-03-16T10:44:09.021Z,9.05
2023-03-16T10:46:39.388Z,6.70
2023-03-16T10:49:06.194Z,6.45
2023-03-16T10:51:34.859Z,7.63
2023-03-16T10:54:07.366Z,6.20
2023-03-16T10:56:35.597Z,7.15
2023-03-16T10:59:02.861Z,8.30
2023-03-16T11:01:29.555Z,6.10
2023-03-16T11:03:57.276Z,9.13
2023-03-16T11:06:31.508Z,6.82
2023-03-16T11:09:12.605Z,7.43
2023-03-16T11:11:39.053Z,6.80
2023-03-16T11:14:11.656Z,7.15
2023-03-16T11:16:46.813Z,6.77
2023-03-16T11:19:19.163Z,6.82
2023-03-16T11:21:46.633Z,6.57
2023-03-16T11:24:23.640Z,8.18
2023-03-16T11:26:54.328Z,7.00
2023-03-16T11:29:36.049Z,8.38
2023-03-16T11:32:07.387Z,7.15
2023-03-16T11:34:35.247Z,8.45
2023-03-16T11:37:21.708Z,5.50
2023-03-16T11:40:00.463Z,8.57
2023-03-16T11:42:41.737Z,5.82
2023-03-16T11:45:13.914Z,9.68
2023-03-16T11:47:43.179Z,5.35
2023-03-16T11:50:12.573Z,7.57
2023-03-16T11:52:41.757Z,4.63
2023-03-16T11:55:27.337Z,4.97
2023-03-16T11:58:03.009Z,5.38
2023-03-16T12:00:47.708Z,5.03
2023-03-16T12:03:31.992Z,5.65
2023-03-16T12:06:16.994Z,4.93
2023-03-16T12:09:13.496Z,4.95
2023-03-16T12:11:48.124Z,5.30
2023-03-16T12:14:15.751Z,4.88
2023-03-16T12:17:11.737Z,5.10
2023-03-16T12:19:38.499Z,7.03
2023-03-16T12:22:13.715Z,5.07
2023-03-16T12:24:42.820Z,5.28
2023-03-16T12:27:15.940Z,6.90
2023-03-16T12:29:50.356Z,6.55
2023-03-16T12:32:40.335Z,7.15
2023-03-16T12:35:17.665Z,7.88
2023-03-16T12:37:50.144Z,8.32
2023-03-16T12:40:19.071Z,6.55
2023-03-16T12:42:48.252Z,6.10
2023-03-16T12:45:28.172Z,6.60
2023-03-16T12:47:57.848Z,6.93
2023-03-16T12:50:25.394Z,6.85
2023-03-16T12:52:52.491Z,6.70
2023-03-16T12:55:20.694Z,6.63
2023-03-16T12:57:49.052Z,9.10
2023-03-16T13:00:16.371Z,7.75
2023-03-16T13:02:44.952Z,6.72
2023-03-16T13:05:14.033Z,8.55
2023-03-16T13:07:52.295Z,8.23
2023-03-16T13:10:20.955Z,9.02
2023-03-16T13:12:47.967Z,5.97
2023-03-16T13:15:17.783Z,9.00
2023-03-16T13:17:44.344Z,8.10
2023-03-16T13:20:21.011Z,6.80
2023-03-16T13:23:09.627Z,8.20
2023-03-16T13:25:42.817Z,7.75
2023-03-16T13:28:16.880Z,8.60
2023-03-16T13:30:45.097Z,7.60
2023-03-16T13:33:25.734Z,7.78
2023-03-16T13:35:52.978Z,6.80
2023-03-16T13:38:22.676Z,7.00
2023-03-16T13:40:50.388Z,10.50
2023-03-16T13:43:17.715Z,8.38
2023-03-16T13:45:44.426Z,7.07
2023-03-16T13:48:12.046Z,8.07
2023-03-16T13:50:41.233Z,6.03
2023-03-16T13:53:19.376Z,8.15
2023-03-16T13:55:47.383Z,7.32
2023-03-16T13:58:20.655Z,7.47
2023-03-16T14:00:47.178Z,8.05
2023-03-16T14:03:17.841Z,6.88
2023-03-16T14:05:44.964Z,7.68
2023-03-16T14:08:23.373Z,9.90
2023-03-16T14:10:50.792Z,7.00
2023-03-16T14:13:24.012Z,7.60
2023-03-16T14:15:50.804Z,6.93
2023-03-16T14:18:21.560Z,7.28
2023-03-16T14:20:55.335Z,6.97
2023-03-16T14:23:28.235Z,7.40
2023-03-16T14:25:55.266Z,10.15
2023-03-16T14:28:27.044Z,7.78
2023-03-16T14:30:55.041Z,5.55
2023-03-16T14:33:32.365Z,7.30
2023-03-16T14:35:59.739Z,9.52
2023-03-16T14:38:32.000Z,6.50
2023-03-16T14:41:03.291Z,8.00
2023-03-16T14:43:32.651Z,7.28
2023-03-16T14:46:00.177Z,10.90
2023-03-16T14:48:28.368Z,6.43
2023-03-16T14:50:56.258Z,5.85
2023-03-16T14:53:24.558Z,8.57
2023-03-16T14:55:51.016Z,7.95
2023-03-16T14:58:17.448Z,11.75
2023-03-16T15:00:52.755Z,10.45
2023-03-16T15:03:20.773Z,9.60
2023-03-16T15:05:48.435Z,8.57
2023-03-16T15:08:20.870Z,9.35
2023-03-16T15:10:47.442Z,6.60
2023-03-16T15:13:17.204Z,8.13
2023-03-16T15:15:44.042Z,7.32
2023-03-16T15:18:10.791Z,6.68
2023-03-16T15:20:41.360Z,9.25
2023-03-16T15:23:10.738Z,13.95
2023-03-16T15:25:38.357Z,13.38
2023-03-16T15:28:14.011Z,12.70
2023-03-16T15:30:40.942Z,12.45
2023-03-16T15:33:08.533Z,10.48
2023-03-16T15:35:36.347Z,8.75
2023-03-16T15:38:06.167Z,9.82
2023-03-16T15:40:32.668Z,11.40
2023-03-16T15:42:59.072Z,14.82
2023-03-16T15:45:25.650Z,19.65
2023-03-16T15:47:53.204Z,10.77
2023-03-16T15:50:21.781Z,8.13
2023-03-16T15:52:50.734Z,8.27
2023-03-16T15:55:22.565Z,9.65
2023-03-16T15:57:51.571Z,10.75
2023-03-16T16:00:24.518Z,17.05
2023-03-16T16:02:50.965Z,8.93
2023-03-16T16:05:17.349Z,9.18
2023-03-16T16:07:43.922Z,12.18
2023-03-16T16:10:12.922Z,10.43
2023-03-16T16:12:39.816Z,7.75
2023-03-16T16:15:17.747Z,9.65
2023-03-16T16:17:57.866Z,10.88
2023-03-16T16:20:32.681Z,11.48
2023-03-16T16:23:03.293Z,14.13
2023-03-16T16:25:36.210Z,10.45
2023-03-16T16:28:02.831Z,8.60
2023-03-16T16:30:31.328Z,7.78
2023-03-16T16:32:58.933Z,23.13
2023-03-16T16:35:27.290Z,76.10
2023-03-16T16:37:54.102Z,32.17
2023-03-16T16:40:23.309Z,87.57
2023-03-16T16:42:51.114Z,563.15
2023-03-16T16:45:25.398Z,200.75
2023-03-16T16:47:53.301Z,144.98
2023-03-16T16:50:20.732Z,225.55
2023-03-16T16:52:47.727Z,162.48
2023-03-16T16:55:14.547Z,75.60
2023-03-16T16:57:41.225Z,57.03
2023-03-16T17:00:17.399Z,83.95
2023-03-16T17:02:48.066Z,84.45
2023-03-16T17:05:16.632Z,84.95
2023-03-16T17:07:43.514Z,88.50
2023-03-16T17:10:16.018Z,31.10
2023-03-16T17:12:43.334Z,23.63
2023-03-16T17:15:29.144Z,25.35
2023-03-16T17:18:14.274Z,35.25
2023-03-16T17:20:40.875Z,35.67
2023-03-16T17:23:23.874Z,34.55
2023-03-16T17:25:50.580Z,33.65
2023-03-16T17:28:17.184Z,40.67
2023-03-16T17:30:45.186Z,42.03
2023-03-16T17:33:16.733Z,40.92
2023-03-16T17:35:45.025Z,40.67
2023-03-16T17:38:18.530Z,36.80
2023-03-16T17:43:16.395Z,35.50
2023-03-16T17:45:43.981Z,41.65
2023-03-16T17:48:15.238Z,43.53
2023-03-16T17:50:41.650Z,54.17
2023-03-16T17:53:08.264Z,60.85
2023-03-16T17:55:34.922Z,54.28
2023-03-16T17:58:01.549Z,57.85
2023-03-16T18:00:31.807Z,61.88
2023-03-16T18:03:10.411Z,58.47
2023-03-16T18:05:38.116Z,64.18
2023-03-16T18:08:13.830Z,63.15
2023-03-16T18:10:41.322Z,65.57
2023-03-16T18:13:22.617Z,62.42
2023-03-16T18:15:49.661Z,52.38
2023-03-16T18:18:18.024Z,49.25
2023-03-16T18:20:44.755Z,54.15
2023-03-16T18:23:17.417Z,51.50
2023-03-16T18:25:44.564Z,46.05
2023-03-16T18:28:11.513Z,45.40
2023-03-16T18:30:39.027Z,44.30
2023-03-16T18:33:06.843Z,39.35
2023-03-16T18:35:34.123Z,42.20
2023-03-16T18:38:00.706Z,53.70
2023-03-16T18:40:29.066Z,50.40
2023-03-16T18:42:55.652Z,46.28
2023-03-16T18:45:22.169Z,49.72
2023-03-16T18:47:50.527Z,68.15
2023-03-16T18:50:21.970Z,58.03
2023-03-16T18:52:48.912Z,57.65
2023-03-16T18:55:16.831Z,49.53
2023-03-16T18:57:43.377Z,59.28
2023-03-16T19:00:14.754Z,56.17
2023-03-16T19:02:41.886Z,56.17
2023-03-16T19:05:18.755Z,53.63
2023-03-16T19:07:46.289Z,55.50
2023-03-16T19:10:27.529Z,53.42
2023-03-16T19:12:54.855Z,56.65
2023-03-16T19:15:21.309Z,65.68
2023-03-16T19:17:47.884Z,69.45
2023-03-16T19:20:16.506Z,79.68
2023-03-16T19:22:44.480Z,77.18
2023-03-16T19:25:18.914Z,75.38
2023-03-16T19:27:46.146Z,86.78
2023-03-16T19:30:23.286Z,88.95
2023-03-16T19:32:50.457Z,82.30
2023-03-16T19:35:17.776Z,86.97
2023-03-16T19:37:45.195Z,84.30
2023-03-16T19:40:12.400Z,82.97
2023-03-16T19:42:42.736Z,82.82
2023-03-16T19:45:22.407Z,84.28
2023-03-16T19:47:48.948Z,83.68
2023-03-16T19:50:19.998Z,82.13
2023-03-16T19:52:46.928Z,73.50
2023-03-16T19:55:14.317Z,58.58
2023-03-16T19:57:40.821Z,58.78
2023-03-16T20:00:08.980Z,54.55
2023-03-16T20:02:37.238Z,62.25
2023-03-16T20:05:03.730Z,55.85
2023-03-16T20:07:30.494Z,53.05
2023-03-16T20:09:57.385Z,54.53
2023-03-16T20:12:24.905Z,53.65
2023-03-16T20:14:52.094Z,50.58
2023-03-16T20:17:23.399Z,63.72
2023-03-16T20:19:50.383Z,50.65
2023-03-16T20:22:18.586Z,48.35
2023-03-16T20:24:45.927Z,48.90
2023-03-16T20:27:12.807Z,50.42
2023-03-16T20:29:39.312Z,48.00
2023-03-16T20:32:08.168Z,54.53
2023-03-16T20:34:34.706Z,54.85
2023-03-16T20:37:01.242Z,55.25
2023-03-16T20:39:27.953Z,58.53
2023-03-16T20:41:54.954Z,59.00
2023-03-16T20:44:23.516Z,58.10
2023-03-16T20:46:49.916Z,57.50
2023-03-16T20:49:22.427Z,59.53
2023-03-16T20:51:49.791Z,64.57
2023-03-16T20:54:16.674Z,65.30
2023-03-16T20:56:43.466Z,63.85
2023-03-16T20:59:23.612Z,64.60
2023-03-16T21:01:52.122Z,60.88
2023-03-16T21:04:36.627Z,61.00
2023-03-16T21:07:06.251Z,58.20
2023-03-16T21:09:33.298Z,55.22
2023-03-16T21:11:59.917Z,53.15
2023-03-16T21:14:26.383Z,53.03
2023-03-16T21:16:53.739Z,50.58
2023-03-16T21:19:21.598Z,52.95
2023-03-16T21:21:48.155Z,54.85
2023-03-16T21:24:14.653Z,53.85
2023-03-16T21:26:42.311Z,54.00
2023-03-16T21:29:14.548Z,51.95
2023-03-16T21:31:41.347Z,55.10
2023-03-16T21:34:25.095Z,53.28
2023-03-16T21:39:19.410Z,52.15
2023-03-16T21:41:47.501Z,51.45
2023-03-16T21:44:13.911Z,55.88
2023-03-16T21:46:40.331Z,59.50
2023-03-16T21:49:10.021Z,53.15
2023-03-16T21:51:36.557Z,51.58
2023-03-16T21:54:03.149Z,58.17
2023-03-16T21:56:30.252Z,73.72
2023-03-16T21:58:56.697Z,73.90
2023-03-16T22:01:28.931Z,77.38
2023-03-16T22:04:01.117Z,69.38
2023-03-16T22:06:30.241Z,72.28
2023-03-16T22:08:57.648Z,64.55
2023-03-16T22:11:27.674Z,51.22
2023-03-16T22:13:54.933Z,49.03
2023-03-16T22:16:23.179Z,51.75
2023-03-16T22:18:51.065Z,50.80
2023-03-16T22:21:34.727Z,50.75
2023-03-16T22:26:28.662Z,42.30
2023-03-16T22:28:56.192Z,43.53
2023-03-16T22:31:33.569Z,42.90
2023-03-16T22:34:00.785Z,44.55
2023-03-16T22:36:27.747Z,45.42
2023-03-16T22:39:00.081Z,51.33
2023-03-16T22:41:26.607Z,52.90
2023-03-16T22:43:53.172Z,58.22
2023-03-16T22:46:21.678Z,53.25
2023-03-16T22:48:48.197Z,56.28
2023-03-16T22:51:20.375Z,57.58
2023-03-16T22:53:47.062Z,62.72
2023-03-16T22:56:13.705Z,59.83
2023-03-16T22:58:45.065Z,56.40
2023-03-16T23:01:15.762Z,52.40
2023-03-16T23:03:42.566Z,57.15
2023-03-16T23:06:14.746Z,52.20
2023-03-16T23:08:41.930Z,47.83
2023-03-16T23:11:12.782Z,55.05
2023-03-16T23:13:39.189Z,48.40
2023-03-16T23:16:12.988Z,52.50
2023-03-16T23:18:39.446Z,47.30
2023-03-16T23:21:05.839Z,48.90
2023-03-16T23:23:32.318Z,51.97
2023-03-16T23:25:58.714Z,54.33
2023-03-16T23:28:25.155Z,58.95
2023-03-16T23:30:51.670Z,57.70
2023-03-16T23:33:18.112Z,54.88
2023-03-16T23:35:46.560Z,52.33
2023-03-16T23:38:13.473Z,59.33
2023-03-16T23:40:40.288Z,51.58
2023-03-16T23:43:07.715Z,48.28
2023-03-16T23:45:37.450Z,46.85
2023-03-16T23:48:05.923Z,44.90
2023-03-16T23:50:34.129Z,47.15
2023-03-16T23:53:01.485Z,47.45
2023-03-16T23:55:28.404Z,47.58
2023-03-16T23:57:54.998Z,48.97
